createdAt,value
2018-01-29T00:06:03.533Z,120.35
2018-01-29T00:26:34.495Z,102.30
2018-01-29T00:47:06.480Z,67.90
2018-01-29T01:07:36.613Z,55.58
2018-01-29T01:28:07.129Z,50.77
2018-01-29T02:03:48.670Z,43.07
2018-01-29T18:41:59.167Z,124.63
2018-01-29T18:44:28.204Z,141.23
2018-01-29T18:46:58.507Z,132.80
2018-01-29T18:49:31.123Z,132.20
2018-01-29T18:52:00.382Z,115.90
2018-01-29T18:54:30.540Z,106.30
2018-01-29T18:56:59.763Z,103.60
2018-01-29T18:59:28.838Z,96.20
2018-01-29T19:01:58.548Z,87.27
2018-01-29T19:04:27.759Z,93.73
2018-01-29T19:06:56.907Z,91.53
2018-01-29T19:09:26.103Z,95.20
2018-01-29T19:11:55.553Z,95.07
2018-01-29T19:14:24.839Z,93.73
2018-01-29T19:16:54.160Z,122.80
2018-01-29T19:19:23.485Z,139.27
2018-01-29T19:21:52.820Z,136.33
2018-01-29T19:24:21.896Z,119.80
2018-01-29T19:26:54.084Z,136.50
2018-01-29T19:29:24.281Z,104.43
2018-01-29T19:31:53.243Z,104.43
2018-01-29T19:34:23.916Z,82.47
2018-01-29T19:36:52.943Z,56.90
2018-01-29T19:39:22.485Z,42.43
2018-01-29T19:41:54.801Z,43.40
2018-01-29T19:44:24.206Z,45.13
2018-01-29T19:46:53.539Z,35.03
2018-01-29T19:49:23.006Z,39.93
2018-01-29T19:51:52.845Z,35.63
2018-01-29T19:54:21.817Z,36.73
2018-01-29T19:56:54.074Z,35.23
2018-01-29T19:59:23.061Z,31.00
2018-01-29T20:01:52.174Z,34.90
2018-01-29T20:04:22.145Z,35.80
2018-01-29T20:06:51.089Z,30.93
2018-01-29T20:09:20.301Z,35.40
2018-01-29T20:11:50.242Z,29.00
2018-01-29T20:14:20.817Z,30.60
2018-01-29T20:16:50.028Z,26.00
2018-01-29T20:19:19.412Z,30.70
2018-01-29T20:21:48.542Z,36.47
2018-01-29T20:24:17.606Z,42.30
2018-01-29T20:26:48.559Z,58.17
2018-01-29T20:29:18.565Z,42.63
2018-01-29T20:31:47.777Z,32.27
2018-01-29T20:34:23.992Z,68.23
2018-01-29T20:36:53.326Z,83.83
2018-01-29T20:39:22.422Z,78.67
2018-01-29T20:41:53.173Z,64.83
2018-01-29T20:44:22.964Z,60.90
2018-01-29T20:46:51.930Z,72.33
2018-01-29T20:49:25.392Z,126.50
2018-01-29T20:51:54.274Z,138.63
2018-01-29T20:54:23.138Z,124.50
2018-01-29T20:56:53.143Z,155.03
2018-01-29T20:59:21.973Z,151.13
2018-01-29T21:01:50.847Z,150.10
2018-01-29T21:04:19.907Z,148.77
2018-01-29T21:06:48.749Z,183.07
2018-01-29T21:09:17.585Z,176.63
2018-01-29T21:11:47.378Z,223.30
2018-01-29T21:14:21.778Z,171.50
2018-01-29T21:16:54.184Z,87.07
2018-01-29T21:19:22.975Z,80.60
2018-01-29T21:21:51.970Z,212.67
2018-01-29T21:24:20.957Z,181.70
2018-01-29T21:26:49.784Z,141.30
2018-01-29T21:29:18.627Z,92.10
2018-01-29T21:31:47.542Z,150.20
2018-01-29T21:34:16.481Z,94.17
2018-01-29T21:36:46.266Z,82.10
2018-01-29T21:39:15.979Z,60.53
2018-01-29T21:41:44.886Z,56.60
2018-01-29T21:44:13.828Z,54.07
2018-01-29T21:46:43.582Z,50.67
2018-01-29T21:49:12.441Z,55.90
2018-01-29T21:51:41.463Z,71.47
2018-01-29T21:54:13.999Z,63.67
2018-01-29T21:56:42.867Z,54.93
2018-01-29T21:59:11.777Z,52.90
2018-01-29T22:01:40.805Z,50.53
2018-01-29T22:04:09.676Z,50.97
2018-01-29T22:06:38.542Z,51.20
2018-01-29T22:09:07.398Z,69.80
2018-01-29T22:11:36.312Z,61.77
2018-01-29T22:14:05.152Z,66.03
2018-01-29T22:16:38.345Z,57.40
2018-01-29T22:19:07.153Z,40.70
2018-01-29T22:21:36.095Z,40.17
2018-01-29T22:24:05.255Z,38.67
2018-01-29T22:26:34.157Z,53.70
2018-01-29T22:29:03.268Z,40.87
2018-01-29T22:31:32.465Z,31.40
2018-01-29T22:34:01.310Z,43.13
2018-01-29T22:36:30.143Z,34.00
2018-01-29T22:39:00.940Z,29.30
2018-01-29T22:41:29.841Z,31.67
2018-01-29T22:43:58.821Z,28.63
2018-01-29T22:46:28.952Z,30.67
2018-01-29T22:48:57.822Z,29.23
2018-01-29T22:51:26.679Z,32.00
2018-01-29T22:54:00.880Z,30.77
2018-01-29T22:56:29.729Z,75.20
2018-01-29T22:58:58.675Z,44.20
2018-01-29T23:01:28.598Z,62.90
2018-01-29T23:03:57.442Z,37.50
2018-01-29T23:06:26.273Z,43.43
2018-01-29T23:08:57.138Z,40.87
2018-01-29T23:11:25.929Z,38.67
2018-01-29T23:13:54.947Z,31.03
2018-01-29T23:16:24.316Z,29.37
2018-01-29T23:18:53.206Z,25.90
2018-01-29T23:21:22.056Z,26.27
2018-01-29T23:23:51.418Z,26.33
2018-01-29T23:26:20.292Z,28.00
2018-01-29T23:28:49.088Z,25.10
2018-01-29T23:31:18.005Z,24.00
2018-01-29T23:33:46.870Z,25.70
2018-01-29T23:36:15.707Z,25.50
2018-01-29T23:38:45.528Z,33.07
2018-01-29T23:41:14.360Z,28.70
2018-01-29T23:43:43.475Z,23.73
2018-01-29T23:46:12.341Z,23.63
2018-01-29T23:48:41.201Z,23.03
2018-01-29T23:51:10.061Z,23.60
2018-01-29T23:53:38.996Z,21.00
2018-01-29T23:56:07.922Z,19.47
2018-01-29T23:58:36.871Z,23.13
